Portada
METAR-TAF:

METAR-TAF

Aeroports :

Siegen, Alemanya

latitud: 50-42-28N, longitud: 008-04-59E, altitud: 602 m

Observació

L'informe es va fer fa 9 hores i 15 minuts, a les 15:50 UTC
Vent 8 kt del Est/Nord-Est, variant entre Nord/Nord-Est i Est
Temperatura 18°C
Humitat 34%
Pressió 1025 hPa
Visibilitat 10 km o més
sense núvols per sota de 1500 mi sense presència de cumulonimbus.

METAR: EDGS 291550Z 07008KT 030V100 CAVOK 18/02 Q1025

Hora: 03:05 (01:05 UTC)

Pronòstic

L'informe es va fer fa 11 hores i 5 minuts, a les 14:00 UTC
Pronòstic vàlid del 29 a les 15 UTC al 29 a les 24 UTC
Vent 10 kt del Est
Visibilitat 10 km o més
sense núvols per sota de 1500 mi sense presència de cumulonimbus.
Evolucionant progressivament
l' 29 a les 22 UTC al 29 a les 24 UTC
Vent 5 kt del Est

TAF: EDGS 291400Z 2915/2924 08010KT CAVOK BECMG 2922/2924 08005KT

Observacions i pronòstics meteorològics de més de 4000 aeroports (METAR i TAF).

Les estacions disponibles són els punts grocs i vermells al mapa.

Posi el ratolí al punt desitjat per veure el nom de l'estació.

Feu clic per veure les observacions i els pronòstics meteorològics.

Per canviar el mapa: feu clic els botons verds amb una creu de color negre per apropar; al botó verd amb un guió per allunyar la imatge; o en les fletxes verdes per a mapes adjacents.


METAR-TAF: